Time;durP1;ratioP1;P1;durP2;ratioP2;P2;SDS_P1;SDS_P2;PMS_P1;PMS_P2;Temp;Humidity;BMP_temperature;BMP_pressure;BME280_temperature;BME280_humidity;BME280_pressure;Samples;Min_cycle;Max_cycle;Signal;HPM_P1;HPM_P2
2021/06/25 00:00:47;;;;;;;22.52;20.15;;;;;;;26.59;64.83;99916.88;5042329;28;20291;-62
2021/06/25 00:03:13;;;;;;;22.95;20.75;;;;;;;26.60;64.62;99916.75;5042124;28;20025;-62
2021/06/25 00:05:39;;;;;;;22.75;20.15;;;;;;;26.59;64.81;99922.19;5042239;28;20058;-62
2021/06/25 00:08:05;;;;;;;22.92;20.48;;;;;;;26.56;65.34;99914.47;5041909;28;20014;-61
2021/06/25 00:10:32;;;;;;;22.63;20.27;;;;;;;26.52;65.50;99914.75;5042187;28;20028;-61
2021/06/25 00:12:58;;;;;;;25.25;22.00;;;;;;;26.50;65.26;99911.38;5042130;28;20041;-63
2021/06/25 00:15:24;;;;;;;23.45;21.00;;;;;;;26.50;65.24;99910.53;5042098;28;20014;-62
2021/06/25 00:17:50;;;;;;;23.15;20.73;;;;;;;26.52;65.42;99913.88;5041933;28;20218;-62
2021/06/25 00:20:16;;;;;;;23.40;20.95;;;;;;;26.53;65.19;99910.28;5042134;28;20041;-62
2021/06/25 00:22:43;;;;;;;24.98;21.15;;;;;;;26.47;65.52;99926.75;5041882;28;20270;-61
2021/06/25 00:25:09;;;;;;;22.92;20.92;;;;;;;26.51;65.61;99912.22;5042529;28;20250;-63
2021/06/25 00:27:35;;;;;;;23.10;20.75;;;;;;;26.52;65.50;99913.88;5041911;28;20053;-62
2021/06/25 00:30:02;;;;;;;24.77;21.20;;;;;;;26.50;65.59;99903.41;5041924;28;20350;-63
2021/06/25 00:32:29;;;;;;;23.67;21.23;;;;;;;26.41;66.04;99909.50;5042042;28;20048;-61
2021/06/25 00:34:54;;;;;;;23.77;21.55;;;;;;;26.37;66.13;99902.75;5041904;28;20021;-62
2021/06/25 00:37:20;;;;;;;27.27;24.52;;;;;;;26.21;67.10;99897.03;5041897;28;20026;-62
2021/06/25 00:39:46;;;;;;;25.90;23.10;;;;;;;26.18;66.77;99904.31;5041881;28;20330;-62
2021/06/25 00:42:12;;;;;;;27.08;21.75;;;;;;;26.24;66.30;99905.59;5041967;28;20049;-61
2021/06/25 00:44:41;;;;;;;24.48;22.05;;;;;;;26.27;66.31;99896.56;5041781;28;20257;-61
2021/06/25 00:47:08;;;;;;;28.17;24.95;;;;;;;26.30;66.56;99898.94;5045920;28;20044;-61
2021/06/25 00:49:35;;;;;;;30.80;25.85;;;;;;;26.11;67.91;99889.88;5061686;28;20052;-63
2021/06/25 00:52:01;;;;;;;26.30;23.80;;;;;;;25.89;68.06;99874.00;5061712;28;20053;-63
2021/06/25 00:54:27;;;;;;;25.77;22.90;;;;;;;26.03;67.30;99870.25;5061727;28;20051;-63
2021/06/25 00:56:53;;;;;;;26.58;23.58;;;;;;;26.03;67.47;99864.94;5054809;28;20041;-63
2021/06/25 00:59:19;;;;;;;29.42;23.98;;;;;;;26.05;67.64;99861.16;5044942;28;20050;-64
2021/06/25 01:01:45;;;;;;;25.48;22.73;;;;;;;26.12;67.52;99870.31;5045399;28;20014;-62
2021/06/25 01:04:13;;;;;;;25.50;22.90;;;;;;;25.98;67.06;99838.72;5045052;28;20025;-62
2021/06/25 01:06:39;;;;;;;27.38;24.50;;;;;;;26.10;67.30;99876.72;5045316;28;20045;-63
2021/06/25 01:09:07;;;;;;;31.08;25.23;;;;;;;26.00;67.57;99866.84;5045161;28;20203;-63
2021/06/25 01:11:34;;;;;;;25.92;23.20;;;;;;;26.09;67.55;99875.84;5045355;28;20052;-62
2021/06/25 01:14:00;;;;;;;27.40;24.38;;;;;;;26.18;66.83;99877.75;5045360;28;20254;-63
2021/06/25 01:16:27;;;;;;;26.05;22.70;;;;;;;26.17;67.14;99875.22;5045318;28;20022;-64
2021/06/25 01:18:53;;;;;;;25.60;21.00;;;;;;;26.10;66.75;99871.41;5045248;28;20360;-64
2021/06/25 01:21:19;;;;;;;25.50;22.63;;;;;;;26.00;67.68;99871.31;5045469;28;20322;-64
2021/06/25 01:23:45;;;;;;;27.00;20.92;;;;;;;26.07;67.34;99869.03;5045010;28;20040;-63
2021/06/25 01:26:11;;;;;;;26.42;23.63;;;;;;;26.03;68.30;99876.38;5045221;28;20032;-64
2021/06/25 01:28:38;;;;;;;29.80;21.45;;;;;;;26.05;67.96;99876.25;5044969;28;20060;-63
2021/06/25 01:31:05;;;;;;;24.33;21.42;;;;;;;26.06;67.17;99864.66;5044786;28;20248;-61
2021/06/25 01:33:32;;;;;;;27.08;24.10;;;;;;;25.77;67.62;99854.63;5044792;28;20250;-61
2021/06/25 01:35:58;;;;;;;30.73;22.63;;;;;;;26.00;67.14;99866.84;5044713;28;20262;-61
2021/06/25 01:38:24;;;;;;;23.73;19.35;;;;;;;26.10;66.43;99877.56;5044554;28;20079;-60
2021/06/25 01:40:50;;;;;;;24.90;19.35;;;;;;;25.92;66.17;99832.09;5044669;28;20270;-61
2021/06/25 01:43:18;;;;;;;20.30;17.85;;;;;;;25.89;65.25;99823.56;5044528;28;20482;-61
2021/06/25 01:45:44;;;;;;;24.20;17.23;;;;;;;26.16;63.97;99873.53;5044353;28;20049;-62
2021/06/25 01:48:10;;;;;;;25.38;16.63;;;;;;;26.22;63.31;99878.31;5044387;28;20017;-61
2021/06/25 01:50:39;;;;;;;19.38;14.95;;;;;;;25.99;63.22;99837.75;5044475;28;20051;-62
2021/06/25 01:53:08;;;;;;;22.55;15.25;;;;;;;26.34;62.83;99881.78;5044403;28;20037;-61
2021/06/25 01:55:41;;;;;;;15.88;12.20;;;;;;;26.30;62.40;99883.84;5044341;28;20041;-61
2021/06/25 01:58:14;;;;;;;14.63;13.13;;;;;;;26.14;62.03;99862.22;5044386;28;20056;-63
2021/06/25 02:00:43;;;;;;;17.58;12.13;;;;;;;26.11;62.03;99855.34;5044312;28;20266;-63
2021/06/25 02:03:09;;;;;;;16.75;11.90;;;;;;;26.29;61.89;99892.78;5044238;28;20029;-63
2021/06/25 02:05:35;;;;;;;14.43;11.93;;;;;;;26.31;61.77;99890.00;5044104;28;20096;-63
2021/06/25 02:08:01;;;;;;;11.75;10.55;;;;;;;26.26;61.41;99893.03;5043892;28;20029;-63
2021/06/25 02:10:27;;;;;;;15.57;11.13;;;;;;;26.31;61.53;99897.97;5043879;28;20051;-63
2021/06/25 02:12:53;;;;;;;17.20;11.85;;;;;;;26.32;61.13;99896.97;5044044;28;20041;-63
2021/06/25 02:15:20;;;;;;;11.85;10.65;;;;;;;26.36;61.04;99887.78;5044102;28;20045;-63
2021/06/25 02:17:46;;;;;;;11.55;10.20;;;;;;;26.38;61.33;99893.84;5043872;28;20041;-64
2021/06/25 02:20:12;;;;;;;14.55;10.43;;;;;;;26.41;60.94;99887.41;5043839;28;20021;-63
2021/06/25 02:22:38;;;;;;;16.23;10.85;;;;;;;26.46;60.07;99891.34;5044183;28;20049;-62
2021/06/25 02:25:07;;;;;;;15.10;11.35;;;;;;;26.25;60.80;99862.16;5043708;28;20278;-61
2021/06/25 02:27:33;;;;;;;12.05;10.13;;;;;;;26.46;60.48;99888.69;5043591;28;20059;-62
2021/06/25 02:29:59;;;;;;;10.07;9.05;;;;;;;26.52;60.53;99892.63;5063474;28;20317;-62
2021/06/25 02:32:25;;;;;;;12.73;9.95;;;;;;;26.56;59.73;99893.22;5063562;28;20021;-63
2021/06/25 02:34:51;;;;;;;12.75;10.55;;;;;;;26.53;60.22;99886.34;5063507;28;20067;-63
2021/06/25 02:37:17;;;;;;;11.52;9.93;;;;;;;26.62;59.87;99885.59;5056011;28;20275;-64
2021/06/25 02:39:42;;;;;;;11.77;10.00;;;;;;;26.66;59.73;99888.81;5063485;28;20021;-63
2021/06/25 02:42:09;;;;;;;11.45;9.60;;;;;;;26.63;59.21;99884.59;5063656;28;20265;-61
2021/06/25 02:44:35;;;;;;;11.35;9.70;;;;;;;26.72;59.44;99877.66;5063302;28;20041;-63
2021/06/25 02:47:01;;;;;;;16.33;9.85;;;;;;;26.73;59.64;99875.88;5056831;28;20048;-62
2021/06/25 02:49:27;;;;;;;13.75;10.00;;;;;;;26.72;59.72;99877.66;5043386;28;20018;-64
2021/06/25 02:51:53;;;;;;;15.07;9.95;;;;;;;26.56;59.47;99870.16;5043214;28;20014;-63
2021/06/25 02:54:18;;;;;;;17.25;9.65;;;;;;;26.23;61.01;99855.28;5043358;28;20056;-62
2021/06/25 02:56:44;;;;;;;11.50;9.15;;;;;;;26.50;58.94;99863.53;5041978;28;20036;-63
2021/06/25 02:59:10;;;;;;;10.23;8.55;;;;;;;26.66;58.95;99865.72;5043242;28;20031;-63
2021/06/25 03:01:36;;;;;;;12.02;8.70;;;;;;;26.69;58.36;99868.19;5043096;28;20028;-64
2021/06/25 03:04:02;;;;;;;13.32;8.90;;;;;;;26.80;58.03;99861.91;5047794;28;20022;-63
2021/06/25 03:06:27;;;;;;;11.63;9.35;;;;;;;26.78;58.59;99852.38;5043023;28;20059;-64
2021/06/25 03:08:53;;;;;;;11.68;9.65;;;;;;;26.80;58.20;99858.41;5042922;28;20018;-61
2021/06/25 03:11:19;;;;;;;11.98;8.95;;;;;;;26.89;58.54;99851.47;5042984;28;20013;-62
2021/06/25 03:13:45;;;;;;;13.80;9.05;;;;;;;27.06;57.81;99849.97;5042862;28;20380;-62
2021/06/25 03:16:11;;;;;;;10.95;8.90;;;;;;;27.10;58.18;99862.03;5042827;28;20029;-62
2021/06/25 03:18:37;;;;;;;10.15;9.15;;;;;;;27.04;58.26;99853.59;5042823;28;20025;-62
2021/06/25 03:21:03;;;;;;;11.88;8.43;;;;;;;27.16;58.25;99880.09;5042169;28;20060;-62
2021/06/25 03:23:28;;;;;;;11.85;8.75;;;;;;;27.13;58.19;99873.22;5042735;28;20040;-62
2021/06/25 03:25:54;;;;;;;11.85;8.88;;;;;;;27.02;58.49;99862.69;5042606;28;20025;-62
2021/06/25 03:28:20;;;;;;;10.25;9.25;;;;;;;27.18;58.08;99864.88;5042655;28;20211;-62
2021/06/25 03:30:46;;;;;;;12.48;9.00;;;;;;;27.22;57.88;99868.91;5042670;28;20037;-61
2021/06/25 03:33:12;;;;;;;11.02;9.23;;;;;;;27.31;58.10;99868.09;5042557;28;20017;-64
2021/06/25 03:35:38;;;;;;;16.58;9.25;;;;;;;27.40;57.36;99865.63;5042535;28;20302;-64
2021/06/25 03:38:05;;;;;;;11.50;8.55;;;;;;;27.46;57.29;99871.22;5042535;28;20348;-64
2021/06/25 03:40:34;;;;;;;11.07;9.05;;;;;;;27.35;57.38;99837.63;5042415;28;20049;-64
2021/06/25 03:43:00;;;;;;;12.70;10.00;;;;;;;27.53;57.53;99855.56;5042768;28;20353;-64
2021/06/25 03:45:26;;;;;;;11.07;9.88;;;;;;;27.59;57.78;99854.16;5042450;28;20251;-64
2021/06/25 03:47:52;;;;;;;9.82;8.70;;;;;;;27.63;57.46;99867.06;5028656;28;20064;-64
2021/06/25 03:50:18;;;;;;;10.80;9.68;;;;;;;27.60;57.31;99850.53;5039249;28;20037;-62
2021/06/25 03:52:44;;;;;;;13.13;9.52;;;;;;;27.57;57.78;99833.03;5042397;28;20074;-62
2021/06/25 03:55:11;;;;;;;10.23;9.23;;;;;;;27.81;57.04;99842.44;5042439;28;20057;-62
2021/06/25 03:57:43;;;;;;;12.32;10.10;;;;;;;27.90;57.36;99846.88;5042291;28;20048;-61
2021/06/25 04:00:12;;;;;;;15.07;9.88;;;;;;;28.01;57.21;99854.75;5042389;28;20041;-61
2021/06/25 04:02:39;;;;;;;13.25;10.00;;;;;;;28.03;57.03;99852.81;5042369;28;20044;-62
2021/06/25 04:05:07;;;;;;;16.58;9.73;;;;;;;28.08;57.25;99855.03;5042196;28;20033;-62
2021/06/25 04:07:34;;;;;;;13.48;10.07;;;;;;;28.02;57.18;99853.78;5042157;28;20342;-62
2021/06/25 04:10:01;;;;;;;12.85;10.32;;;;;;;28.09;56.75;99862.06;5042278;28;20081;-60
2021/06/25 04:12:28;;;;;;;16.00;10.18;;;;;;;28.10;57.11;99857.56;5042244;28;20060;-61
2021/06/25 04:14:54;;;;;;;14.77;9.95;;;;;;;28.08;57.45;99852.38;5041004;28;20049;-61
2021/06/25 04:17:20;;;;;;;11.27;9.63;;;;;;;28.14;56.62;99861.63;5042091;28;20021;-61
2021/06/25 04:19:46;;;;;;;19.67;10.95;;;;;;;28.20;56.93;99866.38;5042331;28;20026;-61
2021/06/25 04:22:11;;;;;;;13.20;11.85;;;;;;;28.23;57.15;99855.44;5042105;28;20048;-61
2021/06/25 04:24:37;;;;;;;13.93;10.35;;;;;;;28.30;56.78;99858.38;5041813;28;20207;-61
2021/06/25 04:27:04;;;;;;;14.52;9.65;;;;;;;28.34;56.72;99863.25;5041547;28;20033;-62
2021/06/25 04:29:32;;;;;;;11.90;9.73;;;;;;;28.32;56.08;99864.38;5041452;28;20048;-62
2021/06/25 04:31:58;;;;;;;13.13;9.82;;;;;;;28.37;56.43;99859.47;5042652;28;20041;-62
2021/06/25 04:34:24;;;;;;;9.90;9.00;;;;;;;28.35;55.42;99848.97;5044484;28;20246;-62
2021/06/25 04:36:49;;;;;;;12.32;10.50;;;;;;;28.43;55.20;99850.91;5044444;28;20013;-62
2021/06/25 04:39:15;;;;;;;12.18;9.45;;;;;;;28.52;55.64;99846.56;5044410;28;20032;-63
2021/06/25 04:41:41;;;;;;;16.15;10.20;;;;;;;28.59;55.83;99843.16;5044999;28;20069;-62
2021/06/25 04:44:07;;;;;;;10.88;9.80;;;;;;;28.65;55.22;99847.09;5045270;28;20045;-63
2021/06/25 04:46:33;;;;;;;19.27;12.18;;;;;;;28.54;56.17;99847.22;5045237;28;20087;-63
2021/06/25 04:49:00;;;;;;;13.82;10.85;;;;;;;28.45;56.21;99846.28;5045221;28;20044;-64
2021/06/25 04:51:26;;;;;;;12.10;10.70;;;;;;;28.63;55.44;99843.72;5045109;28;20037;-63
2021/06/25 04:53:52;;;;;;;14.93;10.38;;;;;;;28.82;55.13;99836.63;5045106;28;20024;-64
2021/06/25 04:56:19;;;;;;;14.48;10.57;;;;;;;28.38;54.31;99799.88;5045122;28;20047;-62
2021/06/25 04:58:45;;;;;;;12.57;10.95;;;;;;;28.68;54.80;99844.13;5044944;28;20044;-62
2021/06/25 05:01:11;;;;;;;11.70;10.50;;;;;;;28.86;54.91;99838.00;5045393;28;20021;-63
2021/06/25 05:03:37;;;;;;;16.15;10.07;;;;;;;29.03;55.14;99850.56;5045142;28;20041;-62
2021/06/25 05:06:04;;;;;;;12.68;10.02;;;;;;;29.22;54.13;99848.78;5045045;28;20089;-63
2021/06/25 05:08:30;;;;;;;12.60;10.23;;;;;;;29.27;53.33;99851.84;5044901;28;20037;-61
2021/06/25 05:10:56;;;;;;;14.48;10.85;;;;;;;29.32;54.60;99838.91;5045244;28;20084;-61
2021/06/25 05:13:22;;;;;;;12.30;11.07;;;;;;;29.31;54.73;99841.75;5045092;28;20048;-61
2021/06/25 05:15:47;;;;;;;14.32;10.82;;;;;;;29.51;53.74;99831.75;5044925;28;20022;-62
2021/06/25 05:18:15;;;;;;;12.70;11.00;;;;;;;29.65;54.30;99831.22;5044768;28;20037;-61
2021/06/25 05:20:42;;;;;;;13.90;10.85;;;;;;;29.80;53.70;99831.53;5044528;28;20059;-66
2021/06/25 05:23:09;;;;;;;13.18;10.48;;;;;;;29.64;53.70;99791.34;5044223;28;20376;-66
2021/06/25 05:25:36;;;;;;;12.70;11.15;;;;;;;29.94;53.70;99839.03;5043929;28;20369;-65
2021/06/25 05:28:03;;;;;;;12.70;10.23;;;;;;;29.94;53.13;99838.16;5044327;28;20045;-66
2021/06/25 05:30:30;;;;;;;11.07;9.40;;;;;;;30.13;52.97;99835.31;5044161;28;20049;-65
2021/06/25 05:32:57;;;;;;;16.00;9.77;;;;;;;30.10;52.14;99838.31;5044599;28;20033;-65
2021/06/25 05:35:29;;;;;;;10.73;9.52;;;;;;;30.17;52.47;99837.66;5044642;28;20041;-67
2021/06/25 05:37:56;;;;;;;11.02;9.93;;;;;;;30.13;52.59;99847.84;5044626;28;20041;-66
2021/06/25 05:40:22;;;;;;;11.60;9.80;;;;;;;30.24;52.55;99846.72;5044377;28;20052;-67
2021/06/25 05:42:48;;;;;;;10.18;9.20;;;;;;;30.29;51.94;99847.13;5044555;28;20025;-65
2021/06/25 05:45:14;;;;;;;12.13;9.93;;;;;;;30.32;52.53;99854.81;5043759;28;20072;-66
2021/06/25 05:47:40;;;;;;;13.75;9.88;;;;;;;30.39;51.94;99849.69;5044418;28;20025;-67
2021/06/25 05:50:06;;;;;;;15.13;10.55;;;;;;;30.30;53.55;99836.28;5044530;28;20021;-66
2021/06/25 05:52:32;;;;;;;14.30;9.93;;;;;;;30.42;52.49;99850.22;5044324;28;20044;-66
2021/06/25 05:54:58;;;;;;;15.60;9.70;;;;;;;30.48;50.89;99845.25;5044502;28;20018;-66
2021/06/25 05:57:24;;;;;;;11.30;8.75;;;;;;;30.65;50.29;99852.38;5044229;28;20018;-65
2021/06/25 05:59:50;;;;;;;10.40;9.35;;;;;;;30.89;50.47;99853.50;5044377;28;20052;-65
2021/06/25 06:02:16;;;;;;;11.20;9.45;;;;;;;31.04;52.03;99854.59;5044165;28;20036;-65
2021/06/25 06:04:41;;;;;;;10.80;9.82;;;;;;;30.88;51.23;99859.84;5044070;28;20033;-65
2021/06/25 06:07:10;;;;;;;11.20;9.70;;;;;;;30.87;50.93;99868.84;5042986;28;20258;-64
2021/06/25 06:09:36;;;;;;;13.90;9.60;;;;;;;31.17;50.42;99856.81;5044083;28;20055;-65
2021/06/25 06:12:02;;;;;;;10.60;9.60;;;;;;;31.20;49.67;99860.97;5044013;28;20025;-65
2021/06/25 06:14:28;;;;;;;12.48;9.20;;;;;;;31.09;49.08;99864.81;5044072;28;20045;-64
2021/06/25 06:16:54;;;;;;;11.90;9.68;;;;;;;30.90;49.27;99860.50;5043671;28;20088;-65
2021/06/25 06:19:19;;;;;;;10.35;9.30;;;;;;;31.01;49.18;99852.22;5043393;28;20033;-65
2021/06/25 06:32:57;;;;;;;13.60;9.45;;;;;;;31.09;50.21;99868.31;5041678;28;20048;-65
2021/06/25 06:35:23;;;;;;;9.88;8.80;;;;;;;31.08;48.80;99871.97;5041623;28;20037;-64
2021/06/25 06:37:50;;;;;;;10.35;9.25;;;;;;;31.03;49.42;99868.97;5041634;28;20024;-63
2021/06/25 06:40:19;;;;;;;15.60;9.32;;;;;;;31.11;48.24;99877.03;5041880;28;20136;-63
2021/06/25 06:42:48;;;;;;;11.43;9.82;;;;;;;31.21;48.59;99878.72;5041601;28;20053;-65
2021/06/25 06:45:17;;;;;;;12.18;8.98;;;;;;;31.31;49.01;99874.91;5041449;28;20037;-64
2021/06/25 06:47:44;;;;;;;10.52;9.35;;;;;;;31.45;50.15;99880.63;5041463;28;20267;-63
2021/06/25 06:50:10;;;;;;;10.57;9.48;;;;;;;31.50;48.77;99879.13;5041288;28;20048;-64
2021/06/25 06:52:36;;;;;;;11.30;9.70;;;;;;;31.15;48.63;99875.69;5041680;28;20053;-65
2021/06/25 06:55:02;;;;;;;11.65;8.98;;;;;;;31.38;47.59;99882.28;5040971;28;20025;-65
2021/06/25 06:57:29;;;;;;;11.90;9.95;;;;;;;31.29;47.77;99881.41;5038330;28;20083;-65
2021/06/25 06:59:55;;;;;;;10.07;9.00;;;;;;;31.55;47.90;99883.16;5041457;28;20049;-64
2021/06/25 07:02:21;;;;;;;12.48;10.07;;;;;;;31.52;47.76;99888.84;5041829;28;20319;-64
2021/06/25 07:04:47;;;;;;;10.27;9.35;;;;;;;31.82;47.87;99888.25;5042539;28;20013;-64
2021/06/25 07:07:13;;;;;;;11.38;10.18;;;;;;;32.03;47.31;99883.41;5042699;28;20254;-63
2021/06/25 07:09:38;;;;;;;15.20;11.00;;;;;;;32.06;47.78;99872.34;5042871;28;20033;-65
2021/06/25 07:12:05;;;;;;;13.10;10.48;;;;;;;32.25;47.62;99871.19;5042804;28;20022;-64
2021/06/25 07:14:31;;;;;;;12.38;10.18;;;;;;;32.02;49.09;99879.88;5042692;28;20060;-66
2021/06/25 07:16:56;;;;;;;15.23;10.65;;;;;;;31.87;47.21;99878.84;5042805;28;20075;-66
2021/06/25 07:19:22;;;;;;;19.15;11.02;;;;;;;31.81;47.55;99875.00;5042274;28;20342;-67
2021/06/25 07:21:48;;;;;;;16.35;11.32;;;;;;;31.61;50.09;99877.16;5046815;28;20345;-65
2021/06/25 07:24:14;;;;;;;24.23;11.95;;;;;;;31.60;50.43;99897.75;5042670;28;20026;-66
2021/06/25 07:26:40;;;;;;;21.70;12.13;;;;;;;31.40;50.99;99889.16;5042640;28;20037;-67
2021/06/25 07:29:05;;;;;;;17.05;11.38;;;;;;;31.12;50.81;99896.59;5042554;28;20048;-63
2021/06/25 07:31:31;;;;;;;17.92;11.57;;;;;;;30.89;51.69;99904.31;5042621;28;20040;-65
2021/06/25 07:33:57;;;;;;;33.53;13.52;;;;;;;30.59;54.80;99911.84;5042510;28;20096;-67
2021/06/25 07:36:23;;;;;;;25.05;14.68;;;;;;;30.26;58.43;99908.91;5042088;28;20021;-66
2021/06/25 07:38:49;;;;;;;35.75;17.23;;;;;;;29.00;67.70;99917.56;5025056;28;20251;-66
2021/06/25 07:41:15;;;;;;;50.83;23.67;;;;;;;28.94;71.52;99934.13;5042252;28;20053;-65
2021/06/25 07:43:40;;;;;;;40.70;21.60;;;;;;;28.40;72.50;99934.66;5042417;28;20018;-65
2021/06/25 07:46:06;;;;;;;34.17;20.88;;;;;;;27.94;73.99;99941.47;5042343;28;20032;-65
2021/06/25 07:48:32;;;;;;;37.45;22.58;;;;;;;27.83;74.86;99922.97;5042278;28;20021;-65
2021/06/25 07:50:58;;;;;;;32.20;21.48;;;;;;;27.62;76.12;99915.94;5042365;28;20021;-65
2021/06/25 07:53:24;;;;;;;40.30;23.95;;;;;;;27.62;76.16;99918.63;5041284;28;20072;-63
2021/06/25 07:55:49;;;;;;;31.23;24.42;;;;;;;27.56;76.72;99916.47;5042239;28;20030;-65
2021/06/25 07:58:17;;;;;;;26.00;20.85;;;;;;;27.51;76.98;99918.72;5042407;28;20017;-63
2021/06/25 08:00:43;;;;;;;32.92;23.50;;;;;;;27.51;77.81;99930.22;5058175;28;20049;-64
2021/06/25 08:03:09;;;;;;;27.63;23.95;;;;;;;27.35;77.72;99927.25;5056114;28;20021;-65
2021/06/25 08:05:35;;;;;;;30.45;25.27;;;;;;;27.29;79.53;99933.03;5042293;28;20033;-63
2021/06/25 08:08:02;;;;;;;32.90;23.73;;;;;;;27.29;79.18;99939.22;5044928;28;20437;-63
2021/06/25 08:10:28;;;;;;;27.00;23.20;;;;;;;27.37;78.84;99934.06;5046345;28;20041;-63
2021/06/25 08:12:54;;;;;;;32.38;23.42;;;;;;;27.23;79.39;99938.91;5046292;28;20249;-63
2021/06/25 08:15:20;;;;;;;26.05;22.05;;;;;;;27.07;79.62;99934.94;5046100;28;20105;-63
2021/06/25 08:17:45;;;;;;;24.95;22.08;;;;;;;27.11;78.92;99936.34;5046199;28;20025;-63
2021/06/25 08:20:12;;;;;;;25.42;19.40;;;;;;;27.18;80.22;99936.66;5046225;28;20049;-63
2021/06/25 08:22:38;;;;;;;22.83;18.33;;;;;;;27.20;78.86;99930.22;5046364;28;20056;-63
2021/06/25 08:25:04;;;;;;;22.52;19.27;;;;;;;27.24;79.48;99908.69;5045544;28;20041;-65
2021/06/25 08:27:30;;;;;;;20.33;17.48;;;;;;;27.28;79.30;99904.75;5045181;28;20065;-64
2021/06/25 08:29:56;;;;;;;21.70;18.73;;;;;;;27.30;78.10;99910.78;5046009;28;20043;-65
2021/06/25 08:32:23;;;;;;;22.02;19.23;;;;;;;26.96;80.27;99917.22;5045832;28;20052;-62
2021/06/25 08:34:49;;;;;;;20.88;18.95;;;;;;;27.07;79.00;99928.78;5036508;28;20072;-62
2021/06/25 08:37:16;;;;;;;18.67;16.92;;;;;;;27.07;79.02;99942.91;5030894;28;20238;-63
2021/06/25 08:39:42;;;;;;;23.65;17.88;;;;;;;26.88;81.83;99941.00;5064659;28;20052;-63
2021/06/25 08:42:08;;;;;;;20.45;16.95;;;;;;;26.76;81.55;99928.75;5065948;28;20044;-55
2021/06/25 08:44:39;;;;;;;22.27;19.73;;;;;;;26.73;81.77;99913.06;5065577;28;20052;-56
2021/06/25 08:47:07;;;;;;;25.77;18.77;;;;;;;26.64;81.77;99914.69;5063274;28;20129;-55
2021/06/25 08:49:37;;;;;;;19.73;17.70;;;;;;;26.57;77.34;99919.66;5045130;28;20044;-56
2021/06/25 08:52:04;;;;;;;20.92;18.27;;;;;;;26.56;80.87;99923.28;5045643;28;20060;-55
2021/06/25 08:54:30;;;;;;;21.05;18.70;;;;;;;26.67;80.24;99923.22;5045362;28;20045;-55
2021/06/25 08:56:57;;;;;;;18.17;15.05;;;;;;;26.78;77.13;99919.69;5045441;28;20143;-56
2021/06/25 08:59:23;;;;;;;20.88;17.60;;;;;;;26.84;77.75;99928.94;5045440;28;20121;-55
2021/06/25 09:01:50;;;;;;;20.98;18.33;;;;;;;26.74;78.96;99920.91;5045279;28;20057;-56
2021/06/25 09:04:33;;;;;;;21.83;17.90;;;;;;;26.53;77.89;99875.72;5045324;28;20079;-55
2021/06/25 09:06:59;;;;;;;19.55;16.95;;;;;;;26.94;78.09;99921.84;5045149;28;20289;-56
2021/06/25 09:09:40;;;;;;;18.40;16.42;;;;;;;27.01;79.22;99932.81;5045362;28;20053;-56
2021/06/25 09:12:07;;;;;;;22.42;17.25;;;;;;;26.95;79.21;99931.53;5044980;28;20061;-56
2021/06/25 09:14:54;;;;;;;24.88;15.65;;;;;;;27.01;78.54;99933.63;5045067;28;20283;-55
2021/06/25 09:17:20;;;;;;;17.88;15.48;;;;;;;27.04;74.55;99946.66;5044891;28;20049;-55
2021/06/25 09:19:46;;;;;;;19.65;14.07;;;;;;;27.24;74.25;99946.75;5044032;28;20263;-53
2021/06/25 09:22:11;;;;;;;24.50;16.30;;;;;;;27.34;73.71;99946.78;5044778;28;20014;-54
2021/06/25 09:24:37;;;;;;;22.63;16.63;;;;;;;27.35;72.17;99940.53;5044952;28;20101;-55
2021/06/25 09:27:06;;;;;;;23.70;18.17;;;;;;;27.47;75.68;99941.25;5044826;28;20105;-55
2021/06/25 09:29:41;;;;;;;20.67;17.38;;;;;;;27.46;73.80;99928.94;5044673;28;20049;-54
2021/06/25 09:32:11;;;;;;;20.88;13.60;;;;;;;27.48;71.92;99919.00;5044890;28;20061;-55
2021/06/25 09:34:39;;;;;;;21.55;15.90;;;;;;;27.53;71.32;99906.13;5044484;28;20049;-54
2021/06/25 09:37:12;;;;;;;20.25;15.30;;;;;;;27.79;73.05;99897.59;5044586;28;20338;-55
2021/06/25 09:39:42;;;;;;;17.77;15.13;;;;;;;27.85;71.59;99889.09;5044713;28;20049;-55
2021/06/25 09:42:26;;;;;;;14.98;13.38;;;;;;;28.02;69.95;99887.53;5044460;28;20079;-55
2021/06/25 09:45:06;;;;;;;14.13;11.15;;;;;;;27.94;69.42;99858.94;5044473;28;20338;-54
2021/06/25 09:47:35;;;;;;;14.85;8.77;;;;;;;28.14;61.22;99877.59;5044099;28;20045;-55
2021/06/25 09:50:04;;;;;;;16.45;11.45;;;;;;;28.39;65.31;99869.00;5044518;28;20049;-54
2021/06/25 09:52:55;;;;;;;14.00;9.43;;;;;;;28.52;66.45;99883.84;5044433;28;20056;-54
2021/06/25 09:55:55;;;;;;;12.40;9.32;;;;;;;28.55;58.42;99883.56;5044252;28;20053;-54
2021/06/25 09:58:31;;;;;;;10.13;5.88;;;;;;;28.40;53.07;99841.38;5044243;28;20057;-54
2021/06/25 10:01:23;;;;;;;12.45;6.18;;;;;;;28.78;56.06;99891.25;5044011;28;20037;-56
2021/06/25 10:03:58;;;;;;;9.45;6.10;;;;;;;28.84;54.35;99888.81;5044273;28;20057;-55
2021/06/25 10:06:33;;;;;;;10.35;5.75;;;;;;;28.83;51.05;99881.81;5044216;28;20046;-55
2021/06/25 10:09:00;;;;;;;12.25;5.35;;;;;;;29.01;51.92;99873.03;5043863;28;20087;-55
2021/06/25 10:11:29;;;;;;;8.82;5.57;;;;;;;29.07;53.04;99869.78;5044157;28;20310;-55
2021/06/25 10:13:56;;;;;;;7.38;4.70;;;;;;;29.05;50.53;99869.91;5043970;28;20044;-56
2021/06/25 10:16:23;;;;;;;9.52;4.95;;;;;;;29.16;50.71;99868.03;5043827;28;20270;-56
2021/06/25 10:18:54;;;;;;;8.90;5.57;;;;;;;29.16;50.33;99874.22;5043423;28;20083;-55
2021/06/25 10:21:20;;;;;;;7.88;5.22;;;;;;;29.01;52.07;99833.88;5043755;28;20044;-55
2021/06/25 10:23:52;;;;;;;7.20;4.60;;;;;;;29.09;49.85;99833.97;5043848;28;20045;-56
2021/06/25 10:26:19;;;;;;;;;;;;;;;29.26;50.76;99839.53;5044360;28;20052;-58
2021/06/25 10:28:47;;;;;;;9.60;5.40;;;;;;;29.54;52.98;99869.66;5043459;28;19936;-56
2021/06/25 10:31:15;;;;;;;9.60;5.90;;;;;;;29.67;54.29;99873.78;5043296;28;20326;-56
2021/06/25 10:33:42;;;;;;;10.15;6.80;;;;;;;29.67;53.54;99865.78;5043755;28;20135;-56
2021/06/25 10:36:10;;;;;;;14.15;6.97;;;;;;;29.75;53.67;99869.34;5043848;28;20052;-57
2021/06/25 10:38:39;;;;;;;15.15;8.65;;;;;;;29.72;55.47;99864.31;5043325;28;20048;-57
2021/06/25 10:41:07;;;;;;;9.73;7.80;;;;;;;29.43;54.59;99829.84;5043201;28;20069;-57
2021/06/25 10:43:44;;;;;;;15.30;8.40;;;;;;;29.72;56.15;99863.50;5043248;28;20053;-57
2021/06/25 10:46:30;;;;;;;12.20;7.72;;;;;;;29.81;54.75;99859.06;5043145;28;20275;-57
2021/06/25 10:49:10;;;;;;;13.48;9.02;;;;;;;29.65;55.49;99863.25;5053323;28;20058;-56
2021/06/25 10:51:43;;;;;;;9.23;8.32;;;;;;;29.82;55.83;99850.06;5063193;28;20068;-56
2021/06/25 10:54:15;;;;;;;8.73;7.80;;;;;;;29.79;54.71;99844.03;5063022;28;20064;-57
2021/06/25 10:57:04;;;;;;;12.10;7.72;;;;;;;29.63;52.46;99841.22;5063114;28;20048;-57
2021/06/25 10:59:39;;;;;;;11.07;8.32;;;;;;;29.55;53.44;99847.31;5023391;28;20049;-57
2021/06/25 11:02:07;;;;;;;10.07;8.38;;;;;;;29.50;55.00;99846.09;5023408;28;20057;-58
2021/06/25 11:04:45;;;;;;;13.13;8.70;;;;;;;29.66;54.67;99837.38;5023729;28;20049;-58
2021/06/25 11:07:11;;;;;;;11.88;7.75;;;;;;;29.85;55.67;99836.44;5024562;28;20053;-57
2021/06/25 11:09:52;;;;;;;13.52;8.50;;;;;;;29.94;54.79;99838.16;5042785;28;20097;-59
2021/06/25 11:12:22;;;;;;;12.52;9.65;;;;;;;29.95;55.97;99845.19;5042881;28;20040;-57
2021/06/25 11:14:50;;;;;;;12.98;8.75;;;;;;;29.78;53.27;99817.47;5042965;28;20075;-57
2021/06/25 11:17:43;;;;;;;18.40;8.82;;;;;;;30.06;53.57;99831.59;5042689;28;20044;-59
2021/06/25 11:20:30;;;;;;;12.18;7.88;;;;;;;29.99;54.86;99790.47;5042722;28;20080;-58
2021/06/25 11:23:01;;;;;;;12.88;7.78;;;;;;;30.34;54.89;99838.63;5042848;28;20056;-58
2021/06/25 11:25:47;;;;;;;9.77;7.35;;;;;;;30.39;53.98;99826.47;5042877;28;20278;-57
2021/06/25 11:28:26;;;;;;;13.00;6.68;;;;;;;30.42;50.41;99825.31;5042386;28;20064;-58
2021/06/25 11:31:04;;;;;;;10.95;6.47;;;;;;;30.43;50.60;99824.34;5042639;28;20048;-58
2021/06/25 11:33:47;;;;;;;7.60;5.97;;;;;;;30.16;48.89;99782.56;5042570;28;20048;-57
2021/06/25 11:36:13;;;;;;;9.57;6.20;;;;;;;30.54;48.43;99831.25;5042591;28;20076;-59